Time;durP1;ratioP1;P1;durP2;ratioP2;P2;SDS_P1;SDS_P2;PMS_P1;PMS_P2;Temp;Humidity;BMP_temperature;BMP_pressure;BME280_temperature;BME280_humidity;BME280_pressure;Samples;Min_cycle;Max_cycle;Signal;HPM_P1;HPM_P2
2023/05/21 00:02:03;;;;;;;6.65;4.63;;;;;;;-146.27;90.50;82842.22;5044047;28;20029;-71
2023/05/21 00:04:30;;;;;;;8.77;5.10;;;;;;;-146.27;90.26;82838.19;5054353;28;20029;-70
2023/05/21 00:06:57;;;;;;;6.68;4.95;;;;;;;-146.27;89.53;82858.28;5057929;28;20103;-69
2023/05/21 00:09:23;;;;;;;10.05;5.43;;;;;;;-146.27;90.38;82842.22;5067850;28;20027;-70
2023/05/21 00:11:48;;;;;;;9.05;4.95;;;;;;;-146.27;90.56;82862.31;5051847;28;20036;-70
2023/05/21 00:14:14;;;;;;;6.70;4.75;;;;;;;-146.27;90.73;82814.09;5043160;28;20017;-69
2023/05/21 00:16:40;;;;;;;6.57;4.72;;;;;;;-146.27;90.93;82850.25;5036291;28;20029;-70
2023/05/21 00:19:05;;;;;;;8.52;5.00;;;;;;;-146.27;90.39;82864.31;5053995;28;20025;-69
2023/05/21 00:21:31;;;;;;;8.18;4.72;;;;;;;-146.27;92.16;82866.31;5074799;28;20024;-70
2023/05/21 00:23:56;;;;;;;8.55;4.60;;;;;;;-146.27;91.90;82844.22;5051422;28;20179;-69
2023/05/21 00:26:22;;;;;;;13.75;5.20;;;;;;;-146.27;91.63;82874.38;5040256;28;20021;-70
2023/05/21 00:28:48;;;;;;;9.95;5.07;;;;;;;-146.27;91.21;82830.16;5052603;28;20028;-70
2023/05/21 00:31:14;;;;;;;9.27;5.47;;;;;;;-146.27;91.56;82874.38;5050885;28;20029;-69
2023/05/21 00:33:40;;;;;;;10.00;4.47;;;;;;;-146.27;92.38;82834.19;5038855;28;20082;-69
2023/05/21 00:36:05;;;;;;;11.63;5.50;;;;;;;-146.27;90.75;82818.13;5046607;28;20108;-70
2023/05/21 00:38:31;;;;;;;8.93;4.82;;;;;;;-146.27;91.30;82866.31;5049591;28;20033;-70
2023/05/21 00:41:00;;;;;;;9.45;4.85;;;;;;;-146.27;90.99;82878.38;5036054;28;20496;-69
2023/05/21 00:43:26;;;;;;;6.53;4.65;;;;;;;-146.27;91.21;82842.22;5051183;28;20101;-70
2023/05/21 00:45:52;;;;;;;8.60;5.15;;;;;;;-146.27;91.37;82854.28;5034191;28;20651;-70
2023/05/21 00:48:19;;;;;;;9.75;5.03;;;;;;;-146.27;92.57;82858.28;5047298;28;20521;-70
2023/05/21 00:50:45;;;;;;;6.57;5.20;;;;;;;-146.27;91.66;82854.28;5053413;28;20233;-70
2023/05/21 00:53:12;;;;;;;11.00;5.05;;;;;;;-146.27;92.39;82854.28;5053461;28;20538;-70
2023/05/21 00:55:38;;;;;;;10.65;4.85;;;;;;;-146.27;91.94;82838.19;5053521;28;20079;-70
2023/05/21 00:58:04;;;;;;;11.25;4.72;;;;;;;-146.27;92.19;82858.28;5052743;28;20033;-70
2023/05/21 01:00:32;;;;;;;10.30;5.07;;;;;;;-146.27;92.70;82854.28;5048770;28;20477;-69
2023/05/21 01:02:58;;;;;;;10.05;5.10;;;;;;;-146.27;92.68;82854.28;5033570;28;20029;-69
2023/05/21 01:05:23;;;;;;;11.73;5.18;;;;;;;-146.27;93.21;82902.50;5033510;28;20029;-69
2023/05/21 01:07:49;;;;;;;8.80;4.88;;;;;;;-146.27;93.41;82880.41;5042974;28;20055;-70
2023/05/21 01:10:14;;;;;;;8.35;4.97;;;;;;;-146.27;92.87;82874.38;5042827;28;20049;-69
2023/05/21 01:12:42;;;;;;;9.57;4.82;;;;;;;-146.27;92.20;82866.31;5064144;28;20027;-69
2023/05/21 01:15:09;;;;;;;7.40;5.03;;;;;;;-146.27;93.11;82890.44;5057454;28;20025;-69
2023/05/21 01:17:37;;;;;;;6.70;4.63;;;;;;;-146.27;92.73;82872.34;5036267;28;20099;-70
2023/05/21 01:20:10;;;;;;;6.68;4.68;;;;;;;-146.27;92.52;82900.47;5033473;28;20100;-70
2023/05/21 01:22:42;;;;;;;9.15;4.82;;;;;;;-146.27;92.90;82908.50;5037267;28;20116;-71
2023/05/21 01:25:09;;;;;;;8.25;5.40;;;;;;;-146.27;92.74;82922.59;5064091;28;20033;-70
2023/05/21 01:27:35;;;;;;;7.40;5.13;;;;;;;-146.27;93.21;82918.56;5032430;28;20447;-71
2023/05/21 01:30:00;;;;;;;11.95;5.57;;;;;;;-146.27;93.71;82898.47;5053188;28;20024;-71
2023/05/21 01:32:35;;;;;;;8.90;5.20;;;;;;;-146.27;93.60;82916.56;5035345;28;20032;-70
2023/05/21 01:35:06;;;;;;;8.93;5.40;;;;;;;-146.27;94.20;82930.63;5048815;28;20516;-70
2023/05/21 01:37:47;;;;;;;7.85;5.10;;;;;;;-146.27;94.60;82930.63;5040902;28;20031;-71
2023/05/21 01:40:21;;;;;;;10.60;5.50;;;;;;;-146.27;94.68;82884.41;5064301;28;20448;-70
2023/05/21 01:42:46;;;;;;;8.80;5.20;;;;;;;-146.27;95.45;82916.56;5067897;28;20021;-70
2023/05/21 01:45:15;;;;;;;9.80;5.45;;;;;;;-146.27;94.55;82898.47;5033562;28;20474;-69
2023/05/21 01:47:42;;;;;;;7.13;5.68;;;;;;;-146.27;94.40;82870.34;5064267;28;20141;-70
2023/05/21 01:50:09;;;;;;;10.15;5.78;;;;;;;-146.27;93.66;82858.28;5042036;28;20040;-69
2023/05/21 01:52:34;;;;;;;9.48;5.05;;;;;;;-146.27;93.92;82866.31;5043691;28;20345;-70
2023/05/21 01:55:00;;;;;;;12.70;6.60;;;;;;;-146.27;94.35;82858.28;5040634;28;20091;-69
2023/05/21 01:57:25;;;;;;;12.23;5.88;;;;;;;-146.27;95.30;82832.19;5050248;28;20035;-69
2023/05/21 01:59:52;;;;;;;8.82;5.10;;;;;;;-146.27;93.89;82834.19;5049324;28;20031;-69
2023/05/21 02:02:18;;;;;;;8.88;5.47;;;;;;;-146.27;94.38;82733.72;5033889;28;20030;-70
2023/05/21 02:04:44;;;;;;;7.43;5.53;;;;;;;-146.27;94.41;82862.31;5047711;28;20021;-69
2023/05/21 02:07:13;;;;;;;11.23;5.93;;;;;;;-146.27;94.72;82814.09;5040783;28;20715;-70
2023/05/21 02:09:38;;;;;;;16.48;5.32;;;;;;;-146.27;95.58;82826.16;5036635;28;20037;-69
2023/05/21 02:12:04;;;;;;;11.40;5.65;;;;;;;-146.27;95.50;82806.06;5052030;28;20045;-69
2023/05/21 02:14:32;;;;;;;9.70;5.97;;;;;;;-146.27;95.51;82812.09;5045263;28;20094;-70
2023/05/21 02:16:58;;;;;;;8.68;5.70;;;;;;;-146.27;95.55;82792.00;5060642;28;20090;-71
2023/05/21 02:19:23;;;;;;;7.82;5.80;;;;;;;-146.27;95.69;82753.81;5034334;28;20029;-71
2023/05/21 02:21:48;;;;;;;11.48;5.57;;;;;;;-146.27;95.99;82812.09;5031681;28;20017;-69
2023/05/21 02:24:14;;;;;;;12.02;6.03;;;;;;;-146.27;96.14;82781.94;5035379;28;20423;-69
2023/05/21 02:26:39;;;;;;;10.60;5.65;;;;;;;-146.27;95.98;82798.03;5049228;28;20518;-70
2023/05/21 02:29:05;;;;;;;7.82;5.32;;;;;;;-146.27;95.75;82773.91;5036346;28;20029;-70
2023/05/21 02:31:31;;;;;;;9.27;5.82;;;;;;;-146.27;95.37;82800.03;5045034;28;20037;-69
2023/05/21 02:33:56;;;;;;;10.65;5.45;;;;;;;-146.27;96.05;82769.91;5049070;28;20454;-69
2023/05/21 02:36:24;;;;;;;7.05;5.25;;;;;;;-146.27;95.84;82777.94;5042106;28;20037;-71
2023/05/21 02:38:49;;;;;;;11.90;5.47;;;;;;;-146.27;95.74;82757.84;5035326;28;20028;-70
2023/05/21 02:41:15;;;;;;;16.15;5.93;;;;;;;-146.27;96.20;82743.78;5047849;28;20025;-70
2023/05/21 02:43:40;;;;;;;9.60;5.82;;;;;;;-146.27;96.23;82773.91;5048558;28;20358;-70
2023/05/21 02:46:06;;;;;;;8.50;5.70;;;;;;;-146.27;96.51;82757.84;5052291;28;20384;-71
2023/05/21 02:48:31;;;;;;;11.95;5.68;;;;;;;-146.27;95.74;82741.78;5057487;28;20083;-70
2023/05/21 02:50:58;;;;;;;9.45;5.88;;;;;;;-146.27;96.87;82721.69;5040075;28;20033;-69
2023/05/21 02:53:23;;;;;;;10.35;5.78;;;;;;;-146.27;95.95;82769.91;5051714;28;20075;-71
2023/05/21 02:55:48;;;;;;;11.85;6.10;;;;;;;-146.27;95.96;82763.88;5043791;28;20453;-69
2023/05/21 02:58:14;;;;;;;10.00;5.80;;;;;;;-146.27;96.21;82735.75;5041902;28;20029;-69
2023/05/21 03:00:40;;;;;;;11.05;5.63;;;;;;;-146.27;96.39;82721.69;5035670;28;20029;-69
2023/05/21 03:03:06;;;;;;;11.45;6.28;;;;;;;-146.27;96.25;82693.56;5036466;28;20028;-70
2023/05/21 03:05:31;;;;;;;13.70;6.10;;;;;;;-146.27;95.40;82737.75;5035974;28;20042;-71
2023/05/21 03:07:56;;;;;;;8.55;5.70;;;;;;;-146.27;95.37;82777.94;5042949;28;20059;-70
2023/05/21 03:10:22;;;;;;;7.80;6.30;;;;;;;-146.27;95.93;82745.78;5038083;28;20103;-70
2023/05/21 03:12:47;;;;;;;6.82;5.65;;;;;;;-146.27;96.36;82783.97;5040026;28;20108;-70
2023/05/21 03:15:15;;;;;;;10.20;5.97;;;;;;;-146.27;96.23;82713.66;5047587;28;20444;-70
2023/05/21 03:17:41;;;;;;;11.48;6.10;;;;;;;-146.27;95.48;82737.75;5054008;28;20029;-71
2023/05/21 03:20:14;;;;;;;8.27;5.75;;;;;;;-146.27;95.55;82753.81;5045386;28;20040;-70
2023/05/21 03:22:40;;;;;;;;;;;;;;;-146.27;96.05;82743.78;5031047;28;20122;-70
2023/05/21 03:25:05;;;;;;;12.37;6.03;;;;;;;-146.27;95.63;82725.69;5031677;28;20015;-70
2023/05/21 03:27:30;;;;;;;11.40;5.78;;;;;;;-146.27;96.03;82749.81;5035514;28;20306;-70
2023/05/21 03:29:56;;;;;;;11.80;6.00;;;;;;;-146.27;96.09;82729.72;5043825;28;20058;-70
2023/05/21 03:32:21;;;;;;;15.25;6.13;;;;;;;-146.27;95.81;82745.78;5052264;28;20093;-70
2023/05/21 03:34:47;;;;;;;12.23;6.68;;;;;;;-146.27;96.60;82733.72;5034156;28;20025;-70
2023/05/21 03:37:12;;;;;;;9.30;6.18;;;;;;;-146.27;95.82;82733.72;5032822;28;20021;-70
2023/05/21 03:39:37;;;;;;;9.57;5.43;;;;;;;-146.27;96.06;82721.69;5033367;28;20025;-70
2023/05/21 03:42:03;;;;;;;8.55;5.95;;;;;;;-146.27;96.17;82701.59;5049401;28;20021;-70
2023/05/21 03:44:31;;;;;;;12.55;6.05;;;;;;;-146.27;96.01;82725.69;5042816;28;20125;-70
2023/05/21 03:46:56;;;;;;;10.40;6.07;;;;;;;-146.27;96.56;82717.66;5030758;28;20029;-70
2023/05/21 03:49:22;;;;;;;10.20;5.93;;;;;;;-146.27;97.18;82689.53;5034476;28;20477;-70
2023/05/21 03:51:47;;;;;;;10.98;6.82;;;;;;;-146.27;96.76;82695.56;5046334;28;20120;-71
2023/05/21 03:54:12;;;;;;;10.13;6.40;;;;;;;-146.27;96.38;82705.59;5045934;28;20044;-70
2023/05/21 03:56:38;;;;;;;9.85;5.97;;;;;;;-146.27;96.76;82759.84;5048263;28;20582;-71
2023/05/21 03:59:03;;;;;;;9.98;5.68;;;;;;;-146.27;96.44;82721.69;5041367;28;20056;-71
2023/05/21 04:01:29;;;;;;;8.80;6.20;;;;;;;-146.27;96.80;82731.72;5031972;28;20057;-70
2023/05/21 04:03:54;;;;;;;8.98;5.80;;;;;;;-146.27;97.04;82715.66;5032229;28;20113;-70
2023/05/21 04:06:20;;;;;;;11.05;5.90;;;;;;;-146.27;96.91;82727.72;5034619;28;20025;-69
2023/05/21 04:08:45;;;;;;;11.48;5.60;;;;;;;-146.27;96.61;82731.72;5029662;28;20492;-72
2023/05/21 04:11:11;;;;;;;10.45;6.15;;;;;;;-146.27;96.29;82715.66;5030230;28;20053;-69
2023/05/21 04:13:37;;;;;;;8.45;6.03;;;;;;;-146.27;96.25;82717.66;5032027;28;20464;-70
2023/05/21 04:16:02;;;;;;;13.15;6.50;;;;;;;-146.27;96.30;82759.84;5041775;28;20032;-69
2023/05/21 04:18:28;;;;;;;8.77;5.68;;;;;;;-146.27;96.74;82721.69;5069549;28;20074;-69
2023/05/21 04:20:53;;;;;;;11.40;6.13;;;;;;;-146.27;96.40;82697.56;5031248;28;20109;-71
2023/05/21 04:23:19;;;;;;;8.90;5.90;;;;;;;-146.27;96.20;82733.72;5030953;28;20037;-71
2023/05/21 04:25:44;;;;;;;10.77;6.05;;;;;;;-146.27;96.20;82705.59;5030417;28;20025;-68
2023/05/21 04:28:09;;;;;;;11.55;6.40;;;;;;;-146.27;96.83;82717.66;5035874;28;20025;-71
2023/05/21 04:30:35;;;;;;;11.50;6.07;;;;;;;-146.27;96.46;82725.69;5049310;28;20036;-71
2023/05/21 04:33:01;;;;;;;9.38;6.18;;;;;;;-146.27;96.55;82701.59;5035520;28;20096;-71
2023/05/21 04:35:27;;;;;;;12.23;5.82;;;;;;;-146.27;96.65;82703.59;5029354;28;20065;-71
2023/05/21 04:37:53;;;;;;;12.07;6.53;;;;;;;-146.27;96.71;82743.78;5040009;28;20056;-70
2023/05/21 04:40:23;;;;;;;8.25;6.18;;;;;;;-146.27;97.21;82693.56;5038124;28;20079;-70
2023/05/21 04:42:49;;;;;;;10.05;6.30;;;;;;;-146.27;97.13;82721.69;5041617;28;20048;-69
2023/05/21 04:45:16;;;;;;;8.65;6.05;;;;;;;-146.27;96.41;82707.63;5045018;28;20025;-71
2023/05/21 04:47:41;;;;;;;10.70;6.43;;;;;;;-146.27;96.60;82705.59;5033733;28;20029;-70
2023/05/21 04:50:07;;;;;;;12.48;5.97;;;;;;;-146.27;96.79;82701.59;5037834;28;20026;-69
2023/05/21 04:52:33;;;;;;;8.70;5.95;;;;;;;-146.27;96.33;82701.59;5040079;28;20484;-70
2023/05/21 04:54:59;;;;;;;9.05;6.10;;;;;;;-146.27;96.48;82693.56;5051196;28;20067;-71
2023/05/21 04:57:24;;;;;;;10.90;6.85;;;;;;;-146.27;97.06;82697.56;5047745;28;20053;-71
2023/05/21 04:59:49;;;;;;;9.80;5.80;;;;;;;-146.27;96.71;82693.56;5039786;28;20039;-70
2023/05/21 05:02:15;;;;;;;8.55;6.55;;;;;;;-146.27;96.42;82689.53;5041013;28;20378;-70
2023/05/21 05:04:42;;;;;;;7.63;5.53;;;;;;;-146.27;95.76;82681.50;5035146;28;20028;-70
2023/05/21 05:07:08;;;;;;;8.20;5.90;;;;;;;-146.27;96.70;82701.59;5041749;28;20029;-69
2023/05/21 05:09:33;;;;;;;9.65;6.13;;;;;;;-146.27;95.90;82633.28;5036418;28;20029;-70
2023/05/21 05:11:59;;;;;;;13.00;6.82;;;;;;;-146.27;96.40;82655.38;5050260;28;20549;-70
2023/05/21 05:14:25;;;;;;;9.70;6.63;;;;;;;-146.27;96.21;82641.31;5037745;28;20025;-70
2023/05/21 05:16:50;;;;;;;11.65;6.63;;;;;;;-146.27;96.22;82641.31;5035854;28;20346;-70
2023/05/21 05:19:15;;;;;;;10.23;6.10;;;;;;;-146.27;96.09;82665.44;5038056;28;20497;-71
2023/05/21 05:21:41;;;;;;;12.02;6.35;;;;;;;-146.27;95.58;82661.41;5032831;28;20028;-70
2023/05/21 05:24:06;;;;;;;8.38;6.22;;;;;;;-146.27;96.11;82665.44;5040044;28;20390;-70
2023/05/21 05:26:31;;;;;;;9.02;6.20;;;;;;;-146.27;95.90;82641.31;5041167;28;20029;-71
2023/05/21 05:28:57;;;;;;;7.50;6.00;;;;;;;-146.27;95.82;82641.31;5048223;28;20104;-71
2023/05/21 05:31:22;;;;;;;11.43;5.75;;;;;;;-146.27;95.48;82603.16;5038450;28;20116;-70
2023/05/21 05:33:47;;;;;;;9.52;6.13;;;;;;;-146.27;95.48;82637.31;5040003;28;20018;-71
2023/05/21 05:36:13;;;;;;;9.13;5.97;;;;;;;-146.27;95.64;82641.31;5040778;28;20017;-70
2023/05/21 05:38:38;;;;;;;9.20;5.82;;;;;;;-146.27;95.76;82619.22;5039400;28;20465;-70
2023/05/21 05:41:04;;;;;;;8.82;6.38;;;;;;;-146.27;95.66;82609.19;5042279;28;20060;-71
2023/05/21 05:43:29;;;;;;;8.75;6.03;;;;;;;-146.27;95.50;82589.09;5040132;28;20281;-71
2023/05/21 05:45:55;;;;;;;10.65;6.03;;;;;;;-146.27;95.28;82617.22;5037305;28;20472;-72
2023/05/21 05:48:20;;;;;;;7.28;5.78;;;;;;;-146.27;94.82;82564.97;5032469;28;20108;-71
2023/05/21 05:50:47;;;;;;;7.63;5.70;;;;;;;-146.27;95.05;82601.16;5046893;28;20028;-70
2023/05/21 05:53:13;;;;;;;10.00;5.85;;;;;;;-146.27;95.88;82637.31;5042138;28;20025;-70
2023/05/21 05:55:39;;;;;;;10.20;6.55;;;;;;;-146.27;95.77;82601.16;5036903;28;20018;-70
2023/05/21 05:58:05;;;;;;;10.15;6.32;;;;;;;-146.27;95.78;82577.03;5033122;28;20030;-70
2023/05/21 06:00:30;;;;;;;10.40;6.28;;;;;;;-146.27;95.37;82597.13;5051056;28;20029;-70
2023/05/21 06:02:56;;;;;;;7.50;5.90;;;;;;;-146.27;95.67;82581.06;5047410;28;20408;-70
2023/05/21 06:05:21;;;;;;;13.20;6.05;;;;;;;-146.27;95.99;82603.16;5044811;28;20546;-70
2023/05/21 06:07:46;;;;;;;8.18;5.60;;;;;;;-146.27;95.92;82593.09;5041095;28;20040;-69
2023/05/21 06:10:12;;;;;;;10.25;6.10;;;;;;;-146.27;95.44;82589.09;5034779;28;20643;-71
2023/05/21 06:12:37;;;;;;;5.93;5.30;;;;;;;-146.27;95.48;82585.06;5040975;28;20545;-69
2023/05/21 06:15:04;;;;;;;8.98;6.35;;;;;;;-146.27;95.30;82569.00;5039479;28;20504;-70
2023/05/21 06:17:30;;;;;;;10.82;6.10;;;;;;;-146.27;95.34;82542.88;5032980;28;20485;-69
2023/05/21 06:19:55;;;;;;;7.68;5.90;;;;;;;-146.27;95.26;82536.84;5032421;28;20104;-69
2023/05/21 06:22:21;;;;;;;8.90;6.07;;;;;;;-146.27;95.52;82524.81;5037515;28;20438;-71
2023/05/21 06:24:46;;;;;;;7.75;6.47;;;;;;;-146.27;95.29;82528.81;5042660;28;20075;-70
2023/05/21 06:27:12;;;;;;;9.15;6.40;;;;;;;-146.27;94.63;82510.75;5039318;28;20074;-70
2023/05/21 06:29:39;;;;;;;8.50;6.10;;;;;;;-146.27;94.27;82496.69;5031523;28;20029;-69
2023/05/21 06:32:06;;;;;;;9.05;6.55;;;;;;;-146.27;94.85;82472.56;5041182;28;20044;-69
2023/05/21 06:34:31;;;;;;;9.27;6.78;;;;;;;-146.27;93.87;82480.59;5041498;28;20052;-68
2023/05/21 06:36:56;;;;;;;9.98;6.60;;;;;;;-146.27;94.11;82492.66;5039340;28;20048;-69
2023/05/21 06:39:23;;;;;;;9.35;6.00;;;;;;;-146.27;94.32;82476.59;5035815;28;20518;-70
2023/05/21 06:41:48;;;;;;;10.60;6.25;;;;;;;-146.27;93.74;82490.66;5042495;28;20022;-70
2023/05/21 06:44:15;;;;;;;8.45;6.55;;;;;;;-146.27;94.60;82460.53;5048603;28;20082;-71
2023/05/21 06:46:40;;;;;;;10.63;6.10;;;;;;;-146.27;93.87;82456.50;5044711;28;20116;-70
2023/05/21 06:49:06;;;;;;;10.88;6.60;;;;;;;-146.27;93.73;82440.44;5042114;28;20568;-69
2023/05/21 06:51:32;;;;;;;12.88;5.82;;;;;;;-146.27;93.89;82446.47;5040615;28;20067;-70
2023/05/21 06:53:57;;;;;;;7.38;6.07;;;;;;;-146.27;93.44;82464.53;5040359;28;20021;-70
2023/05/21 06:56:23;;;;;;;9.05;7.13;;;;;;;-146.27;91.95;82448.47;5030612;28;20029;-70
2023/05/21 06:58:48;;;;;;;8.80;5.90;;;;;;;-146.27;91.51;82442.44;5031375;28;20575;-70
2023/05/21 07:01:14;;;;;;;6.93;5.65;;;;;;;-146.27;90.58;82440.44;5049104;28;20514;-70
2023/05/21 07:03:39;;;;;;;7.68;5.45;;;;;;;-146.27;90.45;82406.28;5039222;28;20040;-69
2023/05/21 07:06:05;;;;;;;9.35;6.10;;;;;;;-146.27;90.32;82436.41;5052288;28;20037;-70
2023/05/21 07:08:30;;;;;;;9.45;5.60;;;;;;;-146.27;90.80;82414.31;5040770;28;20028;-70
2023/05/21 07:10:56;;;;;;;8.75;5.80;;;;;;;-146.27;90.38;82430.38;5049542;28;20076;-69
2023/05/21 07:13:21;;;;;;;7.38;5.13;;;;;;;-146.27;89.53;82418.34;5044380;28;20032;-70
2023/05/21 07:15:47;;;;;;;7.97;5.00;;;;;;;-146.27;89.36;82388.22;5043833;28;20071;-70
2023/05/21 07:18:12;;;;;;;9.20;5.30;;;;;;;-146.27;87.97;82386.19;5042137;28;20037;-70
2023/05/21 07:20:37;;;;;;;8.30;5.18;;;;;;;-146.27;88.21;82436.41;5042875;28;20061;-71
2023/05/21 07:23:03;;;;;;;6.55;5.20;;;;;;;-146.27;88.33;82390.22;5037084;28;20037;-69
2023/05/21 07:25:29;;;;;;;7.80;5.50;;;;;;;-146.27;88.99;82414.31;5039347;28;20455;-69
2023/05/21 07:27:54;;;;;;;13.05;6.30;;;;;;;-146.27;89.26;82380.16;5043523;28;20032;-70
2023/05/21 07:30:20;;;;;;;8.32;5.05;;;;;;;-146.27;88.64;82422.34;5043654;28;20161;-69
2023/05/21 07:32:45;;;;;;;8.38;5.28;;;;;;;-146.27;87.72;82368.13;5037390;28;20026;-74
2023/05/21 07:35:10;;;;;;;13.25;5.47;;;;;;;-146.27;88.02;82368.13;5047300;28;20027;-73
2023/05/21 07:37:36;;;;;;;8.23;5.45;;;;;;;-146.27;87.64;82340.00;5045852;28;20066;-74
2023/05/21 07:40:01;;;;;;;9.43;5.63;;;;;;;-146.27;88.49;82352.03;5045106;28;20067;-74
2023/05/21 07:42:26;;;;;;;8.13;5.43;;;;;;;-146.27;88.02;82374.13;5068231;28;20024;-73
2023/05/21 07:44:52;;;;;;;12.95;5.68;;;;;;;-146.27;88.95;82362.09;5046734;28;20025;-74
2023/05/21 07:47:17;;;;;;;9.73;5.80;;;;;;;-146.27;87.70;82323.91;5050576;28;20108;-75
2023/05/21 07:49:42;;;;;;;9.00;5.93;;;;;;;-146.27;87.39;82337.97;5050396;28;20024;-74
2023/05/21 07:52:08;;;;;;;7.78;5.78;;;;;;;-146.27;87.07;82321.91;5050277;28;20033;-72
2023/05/21 07:54:33;;;;;;;7.55;5.03;;;;;;;-146.27;87.18;82323.91;5037344;28;20063;-70
2023/05/21 07:57:01;;;;;;;7.82;5.53;;;;;;;-146.27;87.24;82289.78;5043748;28;20021;-72
2023/05/21 07:59:27;;;;;;;7.25;5.45;;;;;;;-146.27;86.92;82313.88;5049996;28;20086;-71
2023/05/21 08:01:52;;;;;;;8.77;5.80;;;;;;;-146.27;86.54;82231.53;5050465;28;20025;-72
2023/05/21 08:04:18;;;;;;;8.18;5.60;;;;;;;-146.27;87.51;82239.56;5047721;28;20116;-71
2023/05/21 08:06:43;;;;;;;7.25;5.50;;;;;;;-146.27;86.69;82265.66;5060351;28;20465;-71
2023/05/21 08:09:11;;;;;;;9.38;6.15;;;;;;;-146.27;87.54;82247.59;5056169;28;20027;-71
2023/05/21 08:11:37;;;;;;;11.10;5.82;;;;;;;-146.27;86.09;82245.59;5056291;28;20120;-72
2023/05/21 08:14:02;;;;;;;7.63;5.72;;;;;;;-146.27;86.80;82195.38;5055991;28;20116;-71
2023/05/21 08:16:28;;;;;;;8.05;6.00;;;;;;;-146.27;87.28;82223.47;5050153;28;20420;-72
2023/05/21 08:18:53;;;;;;;7.72;5.20;;;;;;;-146.27;86.14;82199.38;5052835;28;20021;-70
2023/05/21 08:21:19;;;;;;;7.97;5.63;;;;;;;-146.27;85.96;82193.34;5043751;28;20025;-70
2023/05/21 08:23:45;;;;;;;8.43;5.15;;;;;;;-146.27;85.26;82199.38;5048419;28;20033;-71
2023/05/21 08:26:11;;;;;;;9.43;5.70;;;;;;;-146.27;85.25;82199.38;5045224;28;20025;-70
2023/05/21 08:28:40;;;;;;;10.82;5.47;;;;;;;-146.27;84.61;82137.13;5044513;28;20021;-72
2023/05/21 08:31:05;;;;;;;8.52;5.63;;;;;;;-146.27;83.59;82141.13;5045582;28;20051;-71
2023/05/21 08:33:30;;;;;;;10.50;5.75;;;;;;;-146.27;84.18;82153.19;5055506;28;20048;-72
2023/05/21 08:35:56;;;;;;;8.20;5.50;;;;;;;-146.27;83.39;82179.28;5042159;28;20039;-71
2023/05/21 08:38:21;;;;;;;8.10;5.65;;;;;;;-146.27;83.47;82151.16;5034188;28;20495;-71
2023/05/21 08:40:50;;;;;;;9.35;5.60;;;;;;;-146.27;82.78;82141.13;5044708;28;20037;-70
2023/05/21 08:43:16;;;;;;;8.77;5.07;;;;;;;-146.27;81.51;82111.00;5051364;28;20083;-72
2023/05/21 08:45:46;;;;;;;10.48;6.30;;;;;;;-146.27;81.54;82070.81;5056405;28;20037;-71
2023/05/21 08:48:15;;;;;;;8.18;5.50;;;;;;;-146.27;82.19;82090.91;5054426;28;20024;-71
2023/05/21 08:50:42;;;;;;;8.95;5.28;;;;;;;-146.27;81.71;82046.72;5038520;28;20504;-69
2023/05/21 08:53:08;;;;;;;8.43;5.60;;;;;;;-146.27;80.83;82018.59;5034162;28;20392;-69
2023/05/21 08:55:34;;;;;;;8.90;5.68;;;;;;;-146.27;79.64;82014.59;5034337;28;20101;-70
2023/05/21 08:57:59;;;;;;;6.55;5.10;;;;;;;-146.27;79.39;81990.47;5034357;28;20029;-72
2023/05/21 09:00:25;;;;;;;7.85;4.88;;;;;;;-146.27;78.65;82004.53;5045427;28;20033;-70
2023/05/21 09:02:53;;;;;;;14.48;5.55;;;;;;;-146.27;77.92;81918.16;5053944;28;20115;-71
2023/05/21 09:05:19;;;;;;;7.60;5.05;;;;;;;-146.27;77.94;81861.94;5054256;28;20024;-71
2023/05/21 09:08:26;;;;;;;8.32;5.38;;;;;;;-146.27;75.73;81817.75;5053979;28;20507;-70
2023/05/21 09:10:51;;;;;;;8.18;4.82;;;;;;;-146.27;74.74;81801.69;5056342;28;20052;-70
2023/05/21 09:13:18;;;;;;;6.65;4.63;;;;;;;-146.27;74.17;81775.56;5066796;28;20047;-71
2023/05/21 09:15:44;;;;;;;7.38;4.80;;;;;;;-146.27;73.40;81753.47;5054954;28;20083;-70
2023/05/21 09:18:10;;;;;;;6.85;4.93;;;;;;;-146.27;71.86;81693.22;5046517;28;20029;-71
2023/05/21 09:20:36;;;;;;;11.60;4.80;;;;;;;-146.27;71.70;81610.88;5050372;28;20567;-72
2023/05/21 09:23:03;;;;;;;8.27;5.50;;;;;;;-146.27;71.08;81620.91;5064175;28;20415;-71
2023/05/21 09:25:29;;;;;;;11.02;4.18;;;;;;;-146.27;69.14;81588.78;5064972;28;20026;-71
2023/05/21 09:27:58;;;;;;;9.70;4.55;;;;;;;-146.27;69.50;81552.63;5064978;28;20028;-73
2023/05/21 09:30:23;;;;;;;8.13;4.82;;;;;;;-146.27;67.57;81558.66;5050692;28;20116;-73
2023/05/21 09:32:56;;;;;;;6.10;4.03;;;;;;;-146.27;66.90;81556.66;5047282;28;20108;-71
2023/05/21 09:35:21;;;;;;;8.85;4.80;;;;;;;-146.27;66.50;81540.56;5033506;28;20025;-72
2023/05/21 09:37:49;;;;;;;7.18;4.63;;;;;;;-146.27;66.82;81540.56;5033137;28;20116;-73
2023/05/21 09:40:19;;;;;;;8.57;4.75;;;;;;;-146.27;65.66;81552.63;5032798;28;20026;-74
2023/05/21 09:42:47;;;;;;;5.95;4.22;;;;;;;-146.27;66.47;81456.22;5041526;28;20032;-74
2023/05/21 09:45:23;;;;;;;7.78;4.70;;;;;;;-146.27;65.05;81478.31;5068958;28;20029;-74
2023/05/21 09:47:49;;;;;;;8.13;4.32;;;;;;;-146.27;66.45;81416.06;5055782;28;20037;-75
2023/05/21 09:50:23;;;;;;;7.25;4.57;;;;;;;-146.27;64.42;81442.16;5047253;28;20036;-74
2023/05/21 09:52:51;;;;;;;8.35;4.65;;;;;;;-146.27;65.93;81502.41;5046659;28;20022;-74
2023/05/21 09:55:21;;;;;;;9.57;4.72;;;;;;;-146.27;65.16;81482.34;5049599;28;20056;-74
2023/05/21 09:57:48;;;;;;;6.75;4.90;;;;;;;-146.27;66.05;81520.50;5049947;28;20048;-74
2023/05/21 10:00:26;;;;;;;9.40;4.93;;;;;;;-146.27;66.37;81520.50;5049196;28;20055;-74
2023/05/21 10:02:56;;;;;;;17.48;4.47;;;;;;;-146.27;67.51;81424.09;5047371;28;20071;-75
2023/05/21 10:05:32;;;;;;;7.20;4.78;;;;;;;-146.27;64.84;81408.03;5049381;28;20036;-75
2023/05/21 10:08:02;;;;;;;9.13;5.43;;;;;;;-146.27;64.51;81383.94;5050058;28;20036;-75
2023/05/21 10:10:28;;;;;;;6.55;4.32;;;;;;;-146.27;64.23;81420.06;5046739;28;20619;-75
2023/05/21 10:13:02;;;;;;;10.95;5.43;;;;;;;-146.27;64.88;81438.16;5046764;28;20476;-74
2023/05/21 10:15:31;;;;;;;5.90;4.57;;;;;;;-146.27;64.04;81500.41;5050219;28;20571;-75
2023/05/21 10:17:58;;;;;;;10.80;4.93;;;;;;;-146.27;65.86;81391.97;5049010;28;20021;-71
2023/05/21 10:20:24;;;;;;;9.30;4.80;;;;;;;-146.27;66.19;81351.78;5050366;28;20512;-75
2023/05/21 10:22:50;;;;;;;7.18;4.40;;;;;;;-146.27;65.05;81279.50;5047995;28;20523;-75
2023/05/21 10:25:16;;;;;;;8.05;4.82;;;;;;;-146.27;66.08;81311.63;5044456;28;20022;-76
2023/05/21 10:27:41;;;;;;;5.85;4.60;;;;;;;-146.27;62.12;81211.22;5047452;28;20028;-74
2023/05/21 10:30:08;;;;;;;6.30;4.55;;;;;;;-146.27;64.17;81155.00;5050219;28;20052;-74
2023/05/21 10:32:33;;;;;;;8.15;5.28;;;;;;;-146.27;61.61;81034.50;5047774;28;20035;-76
2023/05/21 10:35:17;;;;;;;6.95;4.10;;;;;;;-146.27;58.58;81052.56;5049871;28;20033;-75
2023/05/21 10:37:44;;;;;;;8.50;4.25;;;;;;;-146.27;60.88;81032.50;5048067;28;20029;-74
2023/05/21 10:40:10;;;;;;;6.22;4.43;;;;;;;-146.27;60.12;81038.50;5047590;28;20029;-74
2023/05/21 10:42:56;;;;;;;6.07;4.28;;;;;;;-146.27;58.03;81090.72;5045588;28;20087;-75
2023/05/21 10:45:52;;;;;;;10.30;5.07;;;;;;;-146.27;60.60;81074.66;5047816;28;20284;-74
2023/05/21 10:48:54;;;;;;;6.32;5.10;;;;;;;-146.27;61.58;81116.84;5045262;28;20052;-74
2023/05/21 10:51:26;;;;;;;6.82;4.88;;;;;;;-146.27;62.03;81040.53;5045080;28;20120;-75
2023/05/21 10:53:58;;;;;;;9.37;5.53;;;;;;;-146.27;61.71;80914.00;5047363;28;20047;-74
2023/05/21 10:56:45;;;;;;;6.43;4.55;;;;;;;-146.27;60.93;80833.69;5051232;28;20186;-73
2023/05/21 10:59:20;;;;;;;7.00;5.13;;;;;;;-146.27;57.88;80797.53;5048789;28;20519;-74
2023/05/21 11:01:51;;;;;;;6.78;4.85;;;;;;;-146.27;57.23;80785.50;5047711;28;20158;-76
2023/05/21 11:04:21;;;;;;;12.00;4.65;;;;;;;-146.27;59.24;80675.06;5047440;28;20037;-74
2023/05/21 11:06:49;;;;;;;7.20;4.60;;;;;;;-146.27;58.36;80588.72;5047455;28;20041;-76
2023/05/21 11:09:15;;;;;;;8.20;4.60;;;;;;;-146.27;55.15;80484.31;5048397;28;20028;-75
2023/05/21 11:11:57;;;;;;;11.32;5.45;;;;;;;-146.27;53.07;80612.81;5049024;28;20045;-75
2023/05/21 11:14:35;;;;;;;13.00;4.90;;;;;;;-146.27;55.11;80634.91;5046395;28;20357;-76